createdAt,value
2022-08-03T00:00:40.036Z,16.25
2022-08-03T00:03:08.197Z,16.33
2022-08-03T00:06:03.564Z,16.32
2022-08-03T00:08:30.936Z,16.21
2022-08-03T00:11:00.330Z,16.15
2022-08-03T00:13:28.512Z,16.18
2022-08-03T00:15:56.565Z,16.24
2022-08-03T00:18:24.947Z,16.35
2022-08-03T00:20:53.268Z,16.45
2022-08-03T00:23:21.621Z,16.54
2022-08-03T00:25:49.685Z,16.66
2022-08-03T00:28:20.355Z,16.73
2022-08-03T00:30:48.960Z,16.75
2022-08-03T00:33:18.675Z,16.76
2022-08-03T00:35:50.461Z,16.72
2022-08-03T00:38:21.259Z,16.55
2022-08-03T00:40:49.604Z,16.40
2022-08-03T00:43:18.264Z,16.23
2022-08-03T00:45:46.835Z,16.09
2022-08-03T00:48:29.478Z,16.03
2022-08-03T00:51:01.722Z,16.03
2022-08-03T00:53:35.486Z,16.10
2022-08-03T00:56:03.665Z,16.10
2022-08-03T00:58:31.650Z,16.12
2022-08-03T01:01:00.061Z,16.10
2022-08-03T01:03:35.019Z,15.99
2022-08-03T01:06:15.604Z,15.93
2022-08-03T01:08:52.629Z,15.96
2022-08-03T01:12:00.066Z,15.98
2022-08-03T01:14:51.228Z,15.89
2022-08-03T01:17:44.229Z,15.91
2022-08-03T01:20:17.209Z,15.97
2022-08-03T01:23:06.403Z,15.96
2022-08-03T01:26:03.954Z,16.04
2022-08-03T01:29:09.031Z,16.01
2022-08-03T01:32:59.231Z,15.91
2022-08-03T01:34:52.352Z,15.91
2022-08-03T01:37:27.475Z,15.98
2022-08-03T01:39:58.581Z,16.07
2022-08-03T01:42:29.249Z,16.06
2022-08-03T01:45:00.127Z,15.96
2022-08-03T01:47:29.644Z,15.93
2022-08-03T01:49:59.268Z,15.90
2022-08-03T01:52:34.243Z,15.91
2022-08-03T01:55:04.270Z,15.95
2022-08-03T01:57:33.995Z,16.01
2022-08-03T02:00:24.239Z,15.97
2022-08-03T02:02:57.036Z,15.99
2022-08-03T02:05:29.711Z,16.02
2022-08-03T02:07:59.745Z,16.09
2022-08-03T02:10:36.008Z,16.14
2022-08-03T02:13:07.450Z,16.14
2022-08-03T02:15:37.992Z,16.17
2022-08-03T02:18:08.933Z,16.19
2022-08-03T02:20:40.245Z,16.22
2022-08-03T02:23:08.905Z,16.23
2022-08-03T02:25:43.690Z,16.24
2022-08-03T02:28:16.645Z,16.28
2022-08-03T02:30:54.654Z,16.28
2022-08-03T02:33:28.825Z,16.26
2022-08-03T02:35:58.138Z,16.29
2022-08-03T02:38:31.389Z,16.30
2022-08-03T02:41:01.227Z,16.28
2022-08-03T02:44:05.394Z,16.28
2022-08-03T02:46:21.316Z,16.28
2022-08-03T02:48:54.861Z,16.37
2022-08-03T02:51:25.008Z,16.47
2022-08-03T02:53:55.499Z,16.48
2022-08-03T02:56:26.014Z,16.51
2022-08-03T02:58:55.703Z,16.56
2022-08-03T03:01:27.434Z,16.54
2022-08-03T03:03:57.812Z,16.54
2022-08-03T03:06:27.521Z,16.54
2022-08-03T03:08:59.934Z,16.50
2022-08-03T03:11:33.995Z,16.47
2022-08-03T03:14:03.179Z,16.47
2022-08-03T03:16:32.315Z,16.46
2022-08-03T03:19:02.933Z,16.46
2022-08-03T03:21:33.255Z,16.52
2022-08-03T03:24:02.647Z,16.59
2022-08-03T03:26:31.163Z,16.64
2022-08-03T03:28:59.510Z,16.72
2022-08-03T03:31:27.925Z,16.73
2022-08-03T03:34:00.161Z,16.73
2022-08-03T03:36:28.667Z,16.75
2022-08-03T03:38:57.596Z,16.71
2022-08-03T03:41:25.841Z,16.71
2022-08-03T03:44:01.091Z,16.72
2022-08-03T03:46:29.755Z,16.71
2022-08-03T03:48:57.894Z,16.66
2022-08-03T03:51:26.036Z,16.72
2022-08-03T03:54:02.288Z,16.74
2022-08-03T03:56:40.206Z,16.77
2022-08-03T03:59:12.304Z,16.79
2022-08-03T04:01:46.822Z,16.82
2022-08-03T04:04:58.178Z,16.91
2022-08-03T04:07:46.282Z,16.99
2022-08-03T04:10:42.401Z,17.09
2022-08-03T04:13:15.306Z,17.18
2022-08-03T04:15:48.281Z,17.24
2022-08-03T04:18:19.299Z,17.28
2022-08-03T04:20:50.243Z,17.33
2022-08-03T04:23:21.462Z,17.39
2022-08-03T04:25:55.991Z,17.45
2022-08-03T04:28:31.070Z,17.57
2022-08-03T04:31:02.464Z,17.67
2022-08-03T04:33:34.822Z,17.75
2022-08-03T04:36:08.009Z,17.79
2022-08-03T04:38:40.838Z,17.79
2022-08-03T04:41:10.651Z,17.83
2022-08-03T04:43:40.968Z,17.88
2022-08-03T04:46:11.244Z,17.93
2022-08-03T04:48:43.516Z,17.94
2022-08-03T04:51:13.754Z,18.00
2022-08-03T04:53:45.818Z,18.03
2022-08-03T04:56:16.994Z,18.10
2022-08-03T04:58:49.121Z,18.16
2022-08-03T05:01:21.263Z,18.21
2022-08-03T05:04:11.628Z,18.25
2022-08-03T05:06:48.010Z,18.30
2022-08-03T05:09:45.997Z,18.32
2022-08-03T05:12:08.140Z,18.38
2022-08-03T05:14:38.907Z,18.44
2022-08-03T05:17:08.753Z,18.51
2022-08-03T05:19:37.102Z,18.54
2022-08-03T05:22:06.194Z,18.62
2022-08-03T05:24:34.137Z,18.69
2022-08-03T05:27:04.629Z,18.75
2022-08-03T05:29:32.731Z,18.83
2022-08-03T05:32:07.785Z,18.96
2022-08-03T05:34:36.556Z,19.08
2022-08-03T05:37:04.842Z,19.19
2022-08-03T05:39:33.753Z,19.28
2022-08-03T05:42:03.622Z,19.39
2022-08-03T05:44:32.364Z,19.50
2022-08-03T05:47:00.872Z,19.58
2022-08-03T05:49:29.096Z,19.67
2022-08-03T05:52:00.027Z,19.75
2022-08-03T05:54:55.373Z,19.87
2022-08-03T05:57:26.531Z,19.99
2022-08-03T05:59:58.520Z,20.09
2022-08-03T06:02:27.392Z,20.19
2022-08-03T06:04:55.531Z,20.28
2022-08-03T06:07:23.741Z,20.38
2022-08-03T06:10:34.581Z,20.46
2022-08-03T06:12:41.692Z,20.57
2022-08-03T06:15:11.179Z,20.63
2022-08-03T06:17:50.692Z,20.69
2022-08-03T06:20:28.469Z,20.71
2022-08-03T06:23:01.027Z,20.73
2022-08-03T06:25:29.599Z,20.76
2022-08-03T06:27:57.858Z,20.78
2022-08-03T06:30:26.944Z,20.79
2022-08-03T06:32:55.239Z,20.82
2022-08-03T06:35:23.290Z,20.86
2022-08-03T06:37:52.799Z,20.96
2022-08-03T06:40:34.826Z,21.06
2022-08-03T06:43:04.068Z,21.19
2022-08-03T06:45:33.334Z,21.31
2022-08-03T06:48:04.378Z,21.41
2022-08-03T06:50:40.123Z,21.52
2022-08-03T06:53:18.294Z,21.63
2022-08-03T06:55:54.677Z,21.76
2022-08-03T06:58:23.676Z,21.86
2022-08-03T07:00:51.682Z,21.99
2022-08-03T07:03:19.823Z,22.10
2022-08-03T07:05:51.506Z,22.22
2022-08-03T07:08:19.610Z,22.32
2022-08-03T07:11:02.324Z,22.41
2022-08-03T07:13:30.865Z,22.51
2022-08-03T07:15:58.948Z,22.56
2022-08-03T07:18:29.480Z,22.62
2022-08-03T07:20:58.650Z,22.67
2022-08-03T07:23:26.832Z,22.72
2022-08-03T07:25:54.992Z,22.76
2022-08-03T07:28:23.078Z,22.78
2022-08-03T07:30:51.179Z,22.81
2022-08-03T07:33:19.138Z,22.85
2022-08-03T07:35:47.203Z,22.91
2022-08-03T07:38:15.200Z,22.98
2022-08-03T07:40:46.250Z,23.01
2022-08-03T07:43:14.626Z,23.00
2022-08-03T07:45:44.338Z,23.04
2022-08-03T07:48:12.779Z,23.05
2022-08-03T07:50:41.156Z,23.08
2022-08-03T07:53:09.354Z,23.17
2022-08-03T07:55:37.475Z,23.28
2022-08-03T07:58:12.618Z,23.36
2022-08-03T08:00:40.940Z,23.48
2022-08-03T08:03:08.917Z,23.59
2022-08-03T08:05:37.711Z,23.69
2022-08-03T08:08:07.126Z,23.79
2022-08-03T08:10:41.978Z,23.90
2022-08-03T08:13:29.440Z,24.00
2022-08-03T08:16:00.937Z,24.02
2022-08-03T08:18:32.346Z,24.07
2022-08-03T08:21:08.918Z,24.09
2022-08-03T08:23:43.112Z,24.14
2022-08-03T08:26:13.966Z,24.17
2022-08-03T08:28:44.558Z,24.24
2022-08-03T08:31:14.984Z,24.28
2022-08-03T08:34:03.046Z,24.32
2022-08-03T08:36:35.457Z,24.37
2022-08-03T08:39:04.113Z,24.37
2022-08-03T08:41:34.989Z,24.28
2022-08-03T08:44:04.216Z,24.28
2022-08-03T08:46:33.757Z,24.32
2022-08-03T08:49:03.804Z,24.37
2022-08-03T08:51:54.249Z,24.40
2022-08-03T08:54:33.911Z,24.42
2022-08-03T08:57:21.345Z,24.44
2022-08-03T09:00:14.568Z,24.47
2022-08-03T09:02:44.767Z,24.52
2022-08-03T09:05:31.481Z,24.53
2022-08-03T09:08:08.772Z,24.62
2022-08-03T09:10:36.867Z,24.71
2022-08-03T09:13:05.616Z,24.80
2022-08-03T09:15:34.393Z,24.83
2022-08-03T09:18:04.791Z,24.88
2022-08-03T09:20:35.276Z,24.93
2022-08-03T09:23:26.219Z,25.01
2022-08-03T09:26:01.729Z,25.15
2022-08-03T09:29:00.544Z,25.23
2022-08-03T09:31:43.345Z,25.27
2022-08-03T09:34:20.210Z,25.32
2022-08-03T09:36:51.938Z,25.39
2022-08-03T09:39:41.131Z,25.44
2022-08-03T09:42:23.647Z,25.52
2022-08-03T09:44:55.643Z,25.54
2022-08-03T09:47:33.715Z,25.55
2022-08-03T09:50:04.750Z,25.63
2022-08-03T09:52:49.097Z,25.65
2022-08-03T09:56:33.878Z,25.64
2022-08-03T09:58:14.534Z,25.69
2022-08-03T10:01:01.307Z,25.73
2022-08-03T10:03:46.945Z,25.74
2022-08-03T10:06:29.327Z,25.75
2022-08-03T10:09:21.537Z,25.74
2022-08-03T10:11:52.817Z,25.72
2022-08-03T10:14:28.579Z,25.69
2022-08-03T10:17:03.645Z,25.70
2022-08-03T10:19:31.689Z,25.75
2022-08-03T10:22:42.482Z,25.79
2022-08-03T10:25:14.588Z,25.89
2022-08-03T10:27:47.920Z,25.99
2022-08-03T10:30:21.641Z,26.08
2022-08-03T10:33:50.907Z,26.11
2022-08-03T10:36:03.125Z,26.12
2022-08-03T10:38:38.791Z,26.10
2022-08-03T10:41:09.159Z,26.01
2022-08-03T10:43:49.540Z,25.98
2022-08-03T10:46:23.275Z,25.96
2022-08-03T10:48:58.484Z,25.99
2022-08-03T10:51:32.415Z,26.00
2022-08-03T10:54:01.765Z,26.01
2022-08-03T10:57:02.617Z,26.00
2022-08-03T10:59:46.817Z,25.96
2022-08-03T11:02:23.982Z,26.06
2022-08-03T11:05:28.550Z,26.17
2022-08-03T11:08:21.856Z,26.27
2022-08-03T11:14:08.241Z,26.55
2022-08-03T11:16:48.313Z,26.66
2022-08-03T11:19:20.024Z,26.80
2022-08-03T11:21:51.596Z,26.90
2022-08-03T11:24:41.011Z,27.02
2022-08-03T11:27:28.968Z,27.09
2022-08-03T11:30:19.909Z,27.13
2022-08-03T11:32:52.607Z,27.08
2022-08-03T11:35:53.993Z,27.01
2022-08-03T11:38:25.377Z,26.93
2022-08-03T11:40:54.865Z,26.99
2022-08-03T11:43:30.780Z,27.05
2022-08-03T11:46:03.352Z,27.14
2022-08-03T11:48:40.085Z,27.24
2022-08-03T11:51:23.727Z,27.30
2022-08-03T11:54:06.415Z,27.27
2022-08-03T11:56:49.357Z,27.25
2022-08-03T11:59:31.672Z,27.31
2022-08-03T12:02:13.042Z,27.34
2022-08-03T12:04:58.830Z,27.35
2022-08-03T12:08:03.826Z,27.39
2022-08-03T12:10:17.050Z,27.41
2022-08-03T12:12:49.292Z,27.42
2022-08-03T12:15:25.660Z,27.47
2022-08-03T12:17:57.705Z,27.50
2022-08-03T12:20:35.055Z,27.46
2022-08-03T12:23:06.423Z,27.43
2022-08-03T12:25:39.038Z,27.47
2022-08-03T12:28:36.330Z,27.49
2022-08-03T12:31:12.891Z,27.51
2022-08-03T12:34:05.255Z,27.51
2022-08-03T12:36:35.410Z,27.47
2022-08-03T12:39:09.157Z,27.46
2022-08-03T12:41:39.912Z,27.44
2022-08-03T12:44:11.907Z,27.43
2022-08-03T12:46:47.707Z,27.47
2022-08-03T12:49:18.903Z,27.54
2022-08-03T12:51:46.976Z,27.57
2022-08-03T12:54:24.603Z,27.63
2022-08-03T12:57:11.144Z,27.73
2022-08-03T12:59:52.824Z,27.80
2022-08-03T13:02:26.486Z,27.86
2022-08-03T13:04:55.182Z,27.88
2022-08-03T13:07:23.555Z,27.93
2022-08-03T13:09:54.753Z,28.02
2022-08-03T13:12:27.703Z,28.11
2022-08-03T13:14:57.683Z,28.19
2022-08-03T13:17:26.877Z,28.26
2022-08-03T13:19:54.837Z,28.35
2022-08-03T13:22:25.819Z,28.42
2022-08-03T13:24:57.684Z,28.49
2022-08-03T13:28:04.415Z,28.47
2022-08-03T13:30:27.526Z,28.48
2022-08-03T13:33:00.322Z,28.44
2022-08-03T13:35:28.377Z,28.43
2022-08-03T13:37:56.331Z,28.38
2022-08-03T13:40:30.167Z,28.31
2022-08-03T13:42:58.734Z,28.26
2022-08-03T13:45:27.667Z,28.25
2022-08-03T13:47:55.672Z,28.21
2022-08-03T13:50:23.986Z,28.17
2022-08-03T13:52:52.050Z,28.12
2022-08-03T13:55:19.890Z,28.08
2022-08-03T13:58:04.545Z,28.04
2022-08-03T14:00:41.710Z,28.00
2022-08-03T14:03:14.050Z,27.99
2022-08-03T14:05:44.157Z,27.93
2022-08-03T14:08:13.048Z,27.89
2022-08-03T14:10:44.056Z,27.86
2022-08-03T14:13:16.845Z,27.87
2022-08-03T14:15:50.933Z,27.87
2022-08-03T14:18:28.383Z,27.87
2022-08-03T14:21:06.709Z,27.91
2022-08-03T14:23:37.987Z,27.94
2022-08-03T14:26:07.329Z,27.96
2022-08-03T14:28:36.195Z,27.93
2022-08-03T14:31:04.653Z,27.91
2022-08-03T14:33:36.655Z,27.89
2022-08-03T14:36:05.105Z,27.86
2022-08-03T14:38:33.212Z,27.82
2022-08-03T14:41:12.231Z,27.79
2022-08-03T14:44:00.415Z,27.81
2022-08-03T14:46:32.403Z,27.80
2022-08-03T14:50:37.034Z,27.83
2022-08-03T14:52:01.175Z,27.84
2022-08-03T14:54:31.513Z,27.80
2022-08-03T14:57:00.289Z,27.81
2022-08-03T14:59:28.324Z,27.81
2022-08-03T15:02:23.327Z,27.82
2022-08-03T15:04:52.221Z,27.82
2022-08-03T15:07:20.966Z,27.77
2022-08-03T15:09:49.226Z,27.74
2022-08-03T15:12:17.406Z,27.70
2022-08-03T15:14:45.394Z,27.71
2022-08-03T15:17:13.567Z,27.74
2022-08-03T15:20:02.796Z,27.76
2022-08-03T15:22:34.622Z,27.75
2022-08-03T15:26:29.500Z,27.77
2022-08-03T15:28:03.777Z,27.77
2022-08-03T15:30:38.963Z,27.75
2022-08-03T15:33:07.050Z,27.72
2022-08-03T15:35:35.644Z,27.70
2022-08-03T15:38:08.774Z,27.70
2022-08-03T15:40:37.869Z,27.71
2022-08-03T15:43:06.967Z,27.71
2022-08-03T15:45:36.530Z,27.69
2022-08-03T15:48:05.884Z,27.68
2022-08-03T15:50:34.647Z,27.68
2022-08-03T15:53:02.862Z,27.71
2022-08-03T15:55:31.653Z,27.73
2022-08-03T15:59:04.065Z,27.72
2022-08-03T16:00:47.785Z,27.69
2022-08-03T16:03:15.837Z,27.66
2022-08-03T16:05:43.747Z,27.64
2022-08-03T16:08:13.931Z,27.63
2022-08-03T16:10:42.798Z,27.64
2022-08-03T16:13:11.053Z,27.63
2022-08-03T16:15:39.182Z,27.60
2022-08-03T16:18:07.609Z,27.56
2022-08-03T16:20:35.906Z,27.50
2022-08-03T16:23:08.538Z,27.47
2022-08-03T16:25:40.636Z,27.45
2022-08-03T16:28:13.808Z,27.44
2022-08-03T16:30:44.668Z,27.41
2022-08-03T16:33:17.481Z,27.39
2022-08-03T16:35:46.904Z,27.38
2022-08-03T16:38:19.450Z,27.36
2022-08-03T16:40:52.004Z,27.35
2022-08-03T16:43:22.907Z,27.32
2022-08-03T16:45:51.742Z,27.30
2022-08-03T16:48:20.694Z,27.26
2022-08-03T16:50:49.049Z,27.22
2022-08-03T16:53:33.298Z,27.18
2022-08-03T16:56:09.865Z,27.14
2022-08-03T16:58:42.243Z,27.11
2022-08-03T17:01:21.913Z,27.04
2022-08-03T17:04:03.196Z,27.02
2022-08-03T17:06:36.971Z,26.97
2022-08-03T17:09:13.820Z,26.94
2022-08-03T17:11:51.268Z,26.90
2022-08-03T17:14:29.277Z,26.86
2022-08-03T17:17:03.837Z,26.82
2022-08-03T17:19:35.143Z,26.76
2022-08-03T17:22:11.098Z,26.73
2022-08-03T17:24:44.343Z,26.67
2022-08-03T17:28:41.326Z,26.62
2022-08-03T17:30:13.334Z,26.56
2022-08-03T17:32:56.717Z,26.53
2022-08-03T17:35:36.559Z,26.43
2022-08-03T17:38:12.035Z,26.27
2022-08-03T17:40:43.066Z,26.20
2022-08-03T17:44:12.761Z,26.13
2022-08-03T17:46:10.679Z,26.07
2022-08-03T17:48:41.327Z,26.01
2022-08-03T17:51:33.341Z,25.93
2022-08-03T17:54:18.231Z,25.84
2022-08-03T17:56:56.039Z,25.70
2022-08-03T18:02:48.284Z,25.23
2022-08-03T18:05:21.992Z,24.96
2022-08-03T18:08:01.466Z,24.69
2022-08-03T18:10:35.788Z,24.46
2022-08-03T18:13:11.009Z,24.26
2022-08-03T18:16:04.806Z,24.05
2022-08-03T18:18:40.751Z,23.86
2022-08-03T18:21:16.768Z,23.68
2022-08-03T18:23:50.113Z,23.50
2022-08-03T18:26:22.013Z,23.36
2022-08-03T18:28:54.102Z,23.16
2022-08-03T18:31:33.130Z,23.00
2022-08-03T18:34:32.329Z,22.85
2022-08-03T18:37:10.994Z,22.68
2022-08-03T18:39:50.347Z,22.59
2022-08-03T18:42:26.131Z,22.54
2022-08-03T18:44:56.829Z,22.44
2022-08-03T18:48:07.813Z,22.30
2022-08-03T18:50:50.102Z,22.25
2022-08-03T18:54:03.418Z,22.19
2022-08-03T18:57:13.062Z,22.15
2022-08-03T18:59:59.141Z,22.12
2022-08-03T19:02:38.821Z,21.98
2022-08-03T19:05:09.464Z,21.80
2022-08-03T19:07:40.795Z,21.70
2022-08-03T19:10:15.724Z,21.63
2022-08-03T19:12:53.158Z,21.50
2022-08-03T19:15:36.369Z,21.38
2022-08-03T19:18:10.432Z,21.24
2022-08-03T19:20:41.232Z,21.14
2022-08-03T19:23:17.560Z,21.05
2022-08-03T19:25:49.777Z,20.89
2022-08-03T19:28:18.639Z,20.77
2022-08-03T19:30:53.630Z,20.65
2022-08-03T19:33:29.988Z,20.59
2022-08-03T19:35:58.960Z,20.60
2022-08-03T19:38:29.845Z,20.55
2022-08-03T19:41:06.075Z,20.49
2022-08-03T19:43:49.338Z,20.39
2022-08-03T19:46:30.908Z,20.34
2022-08-03T19:49:14.967Z,20.23
2022-08-03T19:52:00.704Z,20.19
2022-08-03T19:54:39.760Z,20.14
2022-08-03T19:57:33.333Z,20.11
2022-08-03T20:03:46.309Z,20.02
2022-08-03T20:10:09.946Z,19.97
2022-08-03T20:12:52.021Z,19.88
2022-08-03T20:15:33.564Z,19.89
2022-08-03T20:18:39.566Z,19.81
2022-08-03T20:22:14.390Z,19.70
2022-08-03T20:25:21.673Z,19.69
2022-08-03T20:32:42.722Z,19.65
2022-08-03T20:36:01.930Z,19.55
2022-08-03T20:38:57.493Z,19.48
2022-08-03T20:41:40.640Z,19.47
2022-08-03T20:44:45.248Z,19.47
2022-08-03T20:47:50.498Z,19.43
2022-08-03T20:50:27.733Z,19.40
2022-08-03T20:53:12.142Z,19.31
2022-08-03T20:56:02.212Z,19.21
2022-08-03T21:02:38.245Z,19.08
2022-08-03T21:05:47.797Z,19.07
2022-08-03T21:08:34.484Z,19.11
2022-08-03T21:11:30.285Z,19.11
2022-08-03T21:13:04.111Z,25.47
2022-08-03T21:13:07.829Z,19.12
2022-08-03T21:13:08.515Z,20.00
2022-08-03T21:13:14.146Z,19.72
2022-08-03T21:14:36.799Z,19.09
2022-08-03T21:17:14.125Z,19.12
2022-08-03T21:19:55.477Z,19.13
2022-08-03T21:22:29.566Z,19.14
2022-08-03T21:25:00.543Z,19.16
2022-08-03T21:27:32.160Z,19.10
2022-08-03T21:30:07.851Z,19.05
2022-08-03T21:32:40.438Z,19.02
2022-08-03T21:35:10.638Z,18.99
2022-08-03T21:37:40.459Z,18.98
2022-08-03T21:40:13.759Z,18.97
2022-08-03T21:42:43.649Z,18.92
2022-08-03T21:45:17.134Z,18.92
2022-08-03T21:47:45.951Z,18.89
2022-08-03T21:50:15.268Z,18.83
2022-08-03T21:52:53.359Z,18.85
2022-08-03T21:55:31.715Z,18.86
2022-08-03T21:58:05.034Z,18.85
2022-08-03T22:00:36.975Z,18.79
2022-08-03T22:03:18.054Z,18.79
2022-08-03T22:05:53.852Z,18.79
2022-08-03T22:08:49.703Z,18.68
2022-08-03T22:12:51.968Z,18.66
2022-08-03T22:15:33.875Z,18.70
2022-08-03T22:18:23.356Z,18.68
2022-08-03T22:21:46.966Z,18.71
2022-08-03T22:24:44.753Z,18.75
2022-08-03T22:27:53.292Z,18.75
2022-08-03T22:31:30.654Z,18.70
2022-08-03T22:34:55.780Z,18.65
2022-08-03T22:38:12.498Z,18.62
2022-08-03T22:41:03.759Z,18.60
2022-08-03T22:43:33.406Z,18.63
2022-08-03T22:46:09.528Z,18.66
2022-08-03T22:48:42.812Z,18.64
2022-08-03T22:51:11.310Z,18.55
2022-08-03T22:53:40.796Z,18.56
2022-08-03T22:56:15.975Z,18.57
2022-08-03T22:58:44.209Z,18.51
2022-08-03T23:01:22.904Z,18.50
2022-08-03T23:04:02.044Z,18.51
2022-08-03T23:06:37.420Z,18.53
2022-08-03T23:09:11.526Z,18.56
2022-08-03T23:11:46.352Z,18.57
2022-08-03T23:14:20.634Z,18.54
2022-08-03T23:16:56.775Z,18.53
2022-08-03T23:19:34.402Z,18.52
2022-08-03T23:22:27.644Z,18.52
2022-08-03T23:25:07.075Z,18.56
2022-08-03T23:27:40.624Z,18.62
2022-08-03T23:30:11.188Z,18.59
2022-08-03T23:32:56.154Z,18.56
2022-08-03T23:36:28.890Z,18.47
2022-08-03T23:38:41.161Z,18.40
2022-08-03T23:41:10.501Z,18.35
2022-08-03T23:43:53.528Z,18.33
2022-08-03T23:46:27.504Z,18.35
2022-08-03T23:48:56.822Z,18.34
2022-08-03T23:52:07.140Z,18.35
2022-08-03T23:54:49.633Z,18.38
2022-08-03T23:57:35.677Z,18.41
